sensor_id;sensor_type;location;lat;lon;timestamp;P1;durP1;ratioP1;P2;durP2;ratioP2
14066;SDS011;7108;42.684;23.350;2023-06-26T00:01:40;294.37;;;135.63;;
14066;SDS011;7108;42.684;23.350;2023-06-26T00:04:07;299.77;;;137.80;;
14066;SDS011;7108;42.684;23.350;2023-06-26T00:06:33;290.57;;;135.83;;
14066;SDS011;7108;42.684;23.350;2023-06-26T00:08:58;274.53;;;125.30;;
14066;SDS011;7108;42.684;23.350;2023-06-26T00:11:24;261.87;;;131.70;;
14066;SDS011;7108;42.684;23.350;2023-06-26T00:13:49;259.83;;;131.03;;
14066;SDS011;7108;42.684;23.350;2023-06-26T00:16:15;291.53;;;132.97;;
14066;SDS011;7108;42.684;23.350;2023-06-26T00:18:40;269.40;;;130.63;;
14066;SDS011;7108;42.684;23.350;2023-06-26T00:21:06;289.13;;;131.83;;
14066;SDS011;7108;42.684;23.350;2023-06-26T00:23:31;270.53;;;126.23;;
14066;SDS011;7108;42.684;23.350;2023-06-26T00:26:01;266.33;;;125.80;;
14066;SDS011;7108;42.684;23.350;2023-06-26T00:28:26;262.63;;;124.63;;
14066;SDS011;7108;42.684;23.350;2023-06-26T00:30:52;263.97;;;127.40;;
14066;SDS011;7108;42.684;23.350;2023-06-26T00:33:17;271.73;;;130.50;;
14066;SDS011;7108;42.684;23.350;2023-06-26T00:35:43;275.83;;;123.40;;
14066;SDS011;7108;42.684;23.350;2023-06-26T00:38:08;295.60;;;128.03;;
14066;SDS011;7108;42.684;23.350;2023-06-26T00:40:33;274.83;;;126.97;;
14066;SDS011;7108;42.684;23.350;2023-06-26T00:42:59;262.93;;;124.23;;
14066;SDS011;7108;42.684;23.350;2023-06-26T00:45:24;261.30;;;126.90;;
14066;SDS011;7108;42.684;23.350;2023-06-26T00:47:50;263.20;;;126.13;;
14066;SDS011;7108;42.684;23.350;2023-06-26T00:50:17;301.83;;;129.53;;
14066;SDS011;7108;42.684;23.350;2023-06-26T00:52:43;269.10;;;132.23;;
14066;SDS011;7108;42.684;23.350;2023-06-26T00:55:09;274.47;;;132.37;;
14066;SDS011;7108;42.684;23.350;2023-06-26T00:57:34;264.63;;;129.40;;
14066;SDS011;7108;42.684;23.350;2023-06-26T01:00:00;268.10;;;134.37;;
14066;SDS011;7108;42.684;23.350;2023-06-26T01:02:26;276.07;;;132.27;;
14066;SDS011;7108;42.684;23.350;2023-06-26T01:04:58;260.60;;;128.67;;
14066;SDS011;7108;42.684;23.350;2023-06-26T01:07:24;257.93;;;129.57;;
14066;SDS011;7108;42.684;23.350;2023-06-26T01:09:50;276.93;;;129.47;;
14066;SDS011;7108;42.684;23.350;2023-06-26T01:12:15;281.47;;;126.53;;
14066;SDS011;7108;42.684;23.350;2023-06-26T01:14:41;275.07;;;129.53;;
14066;SDS011;7108;42.684;23.350;2023-06-26T01:17:06;278.90;;;124.10;;
14066;SDS011;7108;42.684;23.350;2023-06-26T01:19:36;269.23;;;124.63;;
14066;SDS011;7108;42.684;23.350;2023-06-26T01:22:08;273.83;;;125.47;;
14066;SDS011;7108;42.684;23.350;2023-06-26T01:24:42;279.80;;;126.73;;
14066;SDS011;7108;42.684;23.350;2023-06-26T01:27:19;269.27;;;125.03;;
14066;SDS011;7108;42.684;23.350;2023-06-26T01:29:47;270.07;;;124.27;;
14066;SDS011;7108;42.684;23.350;2023-06-26T01:32:15;286.40;;;127.37;;
14066;SDS011;7108;42.684;23.350;2023-06-26T01:34:40;270.87;;;123.20;;
14066;SDS011;7108;42.684;23.350;2023-06-26T01:37:08;273.37;;;122.07;;
14066;SDS011;7108;42.684;23.350;2023-06-26T01:39:33;264.40;;;123.20;;
14066;SDS011;7108;42.684;23.350;2023-06-26T01:41:59;260.30;;;123.77;;
14066;SDS011;7108;42.684;23.350;2023-06-26T01:47:01;256.13;;;121.20;;
14066;SDS011;7108;42.684;23.350;2023-06-26T01:49:47;259.93;;;130.27;;
14066;SDS011;7108;42.684;23.350;2023-06-26T01:52:19;266.00;;;126.70;;
14066;SDS011;7108;42.684;23.350;2023-06-26T01:54:49;273.70;;;127.10;;
14066;SDS011;7108;42.684;23.350;2023-06-26T01:57:21;268.70;;;129.97;;
14066;SDS011;7108;42.684;23.350;2023-06-26T01:59:47;275.37;;;130.17;;
14066;SDS011;7108;42.684;23.350;2023-06-26T02:02:13;284.57;;;126.93;;
14066;SDS011;7108;42.684;23.350;2023-06-26T02:04:39;263.63;;;123.27;;
14066;SDS011;7108;42.684;23.350;2023-06-26T02:07:05;273.80;;;128.37;;
14066;SDS011;7108;42.684;23.350;2023-06-26T02:09:30;254.90;;;124.10;;
14066;SDS011;7108;42.684;23.350;2023-06-26T02:11:56;262.63;;;124.23;;
14066;SDS011;7108;42.684;23.350;2023-06-26T02:14:21;282.17;;;125.80;;
14066;SDS011;7108;42.684;23.350;2023-06-26T02:16:47;268.40;;;123.07;;
14066;SDS011;7108;42.684;23.350;2023-06-26T02:19:12;297.03;;;129.90;;
14066;SDS011;7108;42.684;23.350;2023-06-26T02:21:37;254.70;;;124.47;;
14066;SDS011;7108;42.684;23.350;2023-06-26T02:24:04;277.87;;;126.13;;
14066;SDS011;7108;42.684;23.350;2023-06-26T02:26:30;266.83;;;127.37;;
14066;SDS011;7108;42.684;23.350;2023-06-26T02:28:55;270.60;;;127.43;;
14066;SDS011;7108;42.684;23.350;2023-06-26T02:31:21;271.37;;;124.17;;
14066;SDS011;7108;42.684;23.350;2023-06-26T02:33:46;251.03;;;124.03;;
14066;SDS011;7108;42.684;23.350;2023-06-26T02:36:11;274.30;;;126.67;;
14066;SDS011;7108;42.684;23.350;2023-06-26T02:38:37;257.10;;;129.60;;
14066;SDS011;7108;42.684;23.350;2023-06-26T02:41:02;276.00;;;129.87;;
14066;SDS011;7108;42.684;23.350;2023-06-26T02:43:28;275.00;;;129.03;;
14066;SDS011;7108;42.684;23.350;2023-06-26T02:45:53;272.30;;;129.03;;
14066;SDS011;7108;42.684;23.350;2023-06-26T02:48:18;286.67;;;125.50;;
14066;SDS011;7108;42.684;23.350;2023-06-26T02:50:44;279.37;;;126.47;;
14066;SDS011;7108;42.684;23.350;2023-06-26T02:53:11;272.87;;;129.07;;
14066;SDS011;7108;42.684;23.350;2023-06-26T02:55:37;260.00;;;124.40;;
14066;SDS011;7108;42.684;23.350;2023-06-26T02:58:02;267.10;;;123.47;;
14066;SDS011;7108;42.684;23.350;2023-06-26T03:00:28;290.27;;;134.17;;
14066;SDS011;7108;42.684;23.350;2023-06-26T03:02:55;276.60;;;129.53;;
14066;SDS011;7108;42.684;23.350;2023-06-26T03:05:20;268.20;;;129.03;;
14066;SDS011;7108;42.684;23.350;2023-06-26T03:07:46;259.33;;;126.90;;
14066;SDS011;7108;42.684;23.350;2023-06-26T03:10:11;281.13;;;126.77;;
14066;SDS011;7108;42.684;23.350;2023-06-26T03:12:37;261.83;;;128.27;;
14066;SDS011;7108;42.684;23.350;2023-06-26T03:15:02;270.60;;;129.20;;
14066;SDS011;7108;42.684;23.350;2023-06-26T03:17:28;276.90;;;133.20;;
14066;SDS011;7108;42.684;23.350;2023-06-26T03:19:54;271.77;;;133.80;;
14066;SDS011;7108;42.684;23.350;2023-06-26T03:22:19;270.03;;;131.80;;
14066;SDS011;7108;42.684;23.350;2023-06-26T03:24:44;270.83;;;130.83;;
14066;SDS011;7108;42.684;23.350;2023-06-26T03:27:11;277.73;;;134.60;;
14066;SDS011;7108;42.684;23.350;2023-06-26T03:29:36;255.40;;;126.97;;
14066;SDS011;7108;42.684;23.350;2023-06-26T03:32:02;273.80;;;131.67;;
14066;SDS011;7108;42.684;23.350;2023-06-26T03:34:27;277.07;;;134.67;;
14066;SDS011;7108;42.684;23.350;2023-06-26T03:36:53;283.23;;;132.67;;
14066;SDS011;7108;42.684;23.350;2023-06-26T03:39:18;270.80;;;128.57;;
14066;SDS011;7108;42.684;23.350;2023-06-26T03:41:44;258.67;;;128.07;;
14066;SDS011;7108;42.684;23.350;2023-06-26T03:44:09;256.93;;;130.47;;
14066;SDS011;7108;42.684;23.350;2023-06-26T03:46:34;274.67;;;133.60;;
14066;SDS011;7108;42.684;23.350;2023-06-26T03:49:00;290.67;;;139.23;;
14066;SDS011;7108;42.684;23.350;2023-06-26T03:51:25;282.00;;;132.23;;
14066;SDS011;7108;42.684;23.350;2023-06-26T03:53:51;279.13;;;132.07;;
14066;SDS011;7108;42.684;23.350;2023-06-26T03:56:16;276.50;;;129.93;;
14066;SDS011;7108;42.684;23.350;2023-06-26T03:58:42;260.50;;;133.67;;
14066;SDS011;7108;42.684;23.350;2023-06-26T04:01:07;287.97;;;134.87;;
14066;SDS011;7108;42.684;23.350;2023-06-26T04:03:33;283.37;;;132.47;;
14066;SDS011;7108;42.684;23.350;2023-06-26T04:05:59;278.20;;;128.87;;
14066;SDS011;7108;42.684;23.350;2023-06-26T04:08:24;303.93;;;133.90;;
14066;SDS011;7108;42.684;23.350;2023-06-26T04:10:52;292.90;;;131.80;;
14066;SDS011;7108;42.684;23.350;2023-06-26T04:13:18;284.07;;;130.70;;
14066;SDS011;7108;42.684;23.350;2023-06-26T04:15:44;291.47;;;132.57;;
14066;SDS011;7108;42.684;23.350;2023-06-26T04:18:09;270.03;;;132.10;;
14066;SDS011;7108;42.684;23.350;2023-06-26T04:20:39;299.10;;;134.43;;
14066;SDS011;7108;42.684;23.350;2023-06-26T04:23:06;316.33;;;133.07;;
14066;SDS011;7108;42.684;23.350;2023-06-26T04:25:31;304.63;;;135.13;;
14066;SDS011;7108;42.684;23.350;2023-06-26T04:27:56;275.33;;;128.80;;
14066;SDS011;7108;42.684;23.350;2023-06-26T04:30:22;296.90;;;133.67;;
14066;SDS011;7108;42.684;23.350;2023-06-26T04:32:48;256.70;;;121.93;;
14066;SDS011;7108;42.684;23.350;2023-06-26T04:35:13;262.10;;;118.77;;
14066;SDS011;7108;42.684;23.350;2023-06-26T04:37:38;259.03;;;122.63;;
14066;SDS011;7108;42.684;23.350;2023-06-26T04:40:05;294.20;;;127.07;;
14066;SDS011;7108;42.684;23.350;2023-06-26T04:42:32;289.63;;;133.53;;
14066;SDS011;7108;42.684;23.350;2023-06-26T04:44:57;272.20;;;126.07;;
14066;SDS011;7108;42.684;23.350;2023-06-26T04:47:23;263.43;;;131.30;;
14066;SDS011;7108;42.684;23.350;2023-06-26T04:49:48;261.03;;;131.43;;
14066;SDS011;7108;42.684;23.350;2023-06-26T04:52:14;267.23;;;129.00;;
14066;SDS011;7108;42.684;23.350;2023-06-26T04:54:39;252.73;;;127.80;;
14066;SDS011;7108;42.684;23.350;2023-06-26T04:57:05;270.43;;;126.67;;
14066;SDS011;7108;42.684;23.350;2023-06-26T04:59:30;274.10;;;131.90;;
14066;SDS011;7108;42.684;23.350;2023-06-26T05:01:56;279.83;;;131.47;;
14066;SDS011;7108;42.684;23.350;2023-06-26T05:04:21;259.10;;;126.57;;
14066;SDS011;7108;42.684;23.350;2023-06-26T05:06:47;261.37;;;121.83;;
14066;SDS011;7108;42.684;23.350;2023-06-26T05:09:13;277.43;;;124.67;;
14066;SDS011;7108;42.684;23.350;2023-06-26T05:11:39;268.93;;;120.73;;
14066;SDS011;7108;42.684;23.350;2023-06-26T05:14:04;292.67;;;128.93;;
14066;SDS011;7108;42.684;23.350;2023-06-26T05:16:32;288.37;;;121.93;;
14066;SDS011;7108;42.684;23.350;2023-06-26T05:18:59;275.90;;;125.47;;
14066;SDS011;7108;42.684;23.350;2023-06-26T05:21:24;274.90;;;121.90;;
14066;SDS011;7108;42.684;23.350;2023-06-26T05:23:50;265.57;;;121.03;;
14066;SDS011;7108;42.684;23.350;2023-06-26T05:26:20;264.60;;;124.87;;
14066;SDS011;7108;42.684;23.350;2023-06-26T05:28:46;257.70;;;117.20;;
14066;SDS011;7108;42.684;23.350;2023-06-26T05:31:16;281.33;;;124.20;;
14066;SDS011;7108;42.684;23.350;2023-06-26T05:33:43;260.03;;;125.10;;
14066;SDS011;7108;42.684;23.350;2023-06-26T05:36:09;280.40;;;119.53;;
14066;SDS011;7108;42.684;23.350;2023-06-26T05:38:37;269.07;;;118.87;;
14066;SDS011;7108;42.684;23.350;2023-06-26T05:41:03;298.77;;;125.90;;
14066;SDS011;7108;42.684;23.350;2023-06-26T05:43:28;298.67;;;127.83;;
14066;SDS011;7108;42.684;23.350;2023-06-26T05:45:54;257.27;;;122.20;;
14066;SDS011;7108;42.684;23.350;2023-06-26T05:48:19;279.27;;;124.90;;
14066;SDS011;7108;42.684;23.350;2023-06-26T05:50:45;269.90;;;125.53;;
14066;SDS011;7108;42.684;23.350;2023-06-26T05:53:10;290.53;;;124.30;;
14066;SDS011;7108;42.684;23.350;2023-06-26T05:55:36;284.70;;;128.17;;
14066;SDS011;7108;42.684;23.350;2023-06-26T05:58:02;253.30;;;117.50;;
14066;SDS011;7108;42.684;23.350;2023-06-26T06:00:28;280.03;;;125.40;;
14066;SDS011;7108;42.684;23.350;2023-06-26T06:02:53;264.87;;;120.17;;
14066;SDS011;7108;42.684;23.350;2023-06-26T06:05:20;274.60;;;126.10;;
14066;SDS011;7108;42.684;23.350;2023-06-26T06:07:46;255.50;;;120.10;;
14066;SDS011;7108;42.684;23.350;2023-06-26T06:10:12;297.73;;;128.10;;
14066;SDS011;7108;42.684;23.350;2023-06-26T06:12:37;308.73;;;130.13;;
14066;SDS011;7108;42.684;23.350;2023-06-26T06:15:03;263.27;;;117.30;;
14066;SDS011;7108;42.684;23.350;2023-06-26T06:17:29;263.03;;;116.83;;
14066;SDS011;7108;42.684;23.350;2023-06-26T06:19:54;261.47;;;117.87;;
14066;SDS011;7108;42.684;23.350;2023-06-26T06:22:20;282.60;;;120.97;;
14066;SDS011;7108;42.684;23.350;2023-06-26T06:24:45;255.80;;;118.77;;
14066;SDS011;7108;42.684;23.350;2023-06-26T06:27:11;276.33;;;123.20;;
14066;SDS011;7108;42.684;23.350;2023-06-26T06:29:36;274.37;;;122.00;;
14066;SDS011;7108;42.684;23.350;2023-06-26T06:32:02;283.70;;;126.33;;
14066;SDS011;7108;42.684;23.350;2023-06-26T06:34:27;261.57;;;117.30;;
14066;SDS011;7108;42.684;23.350;2023-06-26T06:36:53;263.60;;;118.10;;
14066;SDS011;7108;42.684;23.350;2023-06-26T06:39:18;284.80;;;122.97;;
14066;SDS011;7108;42.684;23.350;2023-06-26T06:41:43;274.57;;;119.47;;
14066;SDS011;7108;42.684;23.350;2023-06-26T06:44:09;295.53;;;122.77;;
14066;SDS011;7108;42.684;23.350;2023-06-26T06:46:34;268.47;;;118.03;;
14066;SDS011;7108;42.684;23.350;2023-06-26T06:49:00;265.40;;;116.93;;
14066;SDS011;7108;42.684;23.350;2023-06-26T06:51:25;254.10;;;112.17;;
14066;SDS011;7108;42.684;23.350;2023-06-26T06:53:51;253.03;;;115.43;;
14066;SDS011;7108;42.684;23.350;2023-06-26T06:56:16;288.13;;;119.73;;
14066;SDS011;7108;42.684;23.350;2023-06-26T06:58:42;282.70;;;120.40;;
14066;SDS011;7108;42.684;23.350;2023-06-26T07:01:11;267.47;;;117.30;;
14066;SDS011;7108;42.684;23.350;2023-06-26T07:03:37;265.10;;;116.17;;
14066;SDS011;7108;42.684;23.350;2023-06-26T07:06:03;265.03;;;116.87;;
14066;SDS011;7108;42.684;23.350;2023-06-26T07:08:28;265.60;;;115.30;;
14066;SDS011;7108;42.684;23.350;2023-06-26T07:10:54;266.23;;;115.77;;
14066;SDS011;7108;42.684;23.350;2023-06-26T07:13:21;254.83;;;111.87;;
14066;SDS011;7108;42.684;23.350;2023-06-26T07:15:47;272.90;;;119.20;;
14066;SDS011;7108;42.684;23.350;2023-06-26T07:18:13;284.30;;;114.17;;
14066;SDS011;7108;42.684;23.350;2023-06-26T07:20:38;272.03;;;116.90;;
14066;SDS011;7108;42.684;23.350;2023-06-26T07:23:04;253.00;;;114.07;;
14066;SDS011;7108;42.684;23.350;2023-06-26T07:25:29;251.70;;;113.57;;
14066;SDS011;7108;42.684;23.350;2023-06-26T07:27:55;251.23;;;115.63;;
14066;SDS011;7108;42.684;23.350;2023-06-26T07:30:20;275.20;;;112.87;;
14066;SDS011;7108;42.684;23.350;2023-06-26T07:32:45;262.30;;;115.43;;
14066;SDS011;7108;42.684;23.350;2023-06-26T07:35:11;279.67;;;117.83;;
14066;SDS011;7108;42.684;23.350;2023-06-26T07:37:36;279.30;;;120.40;;
14066;SDS011;7108;42.684;23.350;2023-06-26T07:40:02;255.53;;;114.43;;
14066;SDS011;7108;42.684;23.350;2023-06-26T07:42:27;267.00;;;118.07;;
14066;SDS011;7108;42.684;23.350;2023-06-26T07:44:53;254.50;;;112.93;;
14066;SDS011;7108;42.684;23.350;2023-06-26T07:47:19;275.67;;;117.77;;
14066;SDS011;7108;42.684;23.350;2023-06-26T07:49:44;269.70;;;116.83;;
14066;SDS011;7108;42.684;23.350;2023-06-26T07:52:11;289.30;;;121.40;;
14066;SDS011;7108;42.684;23.350;2023-06-26T07:54:36;271.27;;;114.37;;
14066;SDS011;7108;42.684;23.350;2023-06-26T07:57:03;256.50;;;115.03;;
14066;SDS011;7108;42.684;23.350;2023-06-26T07:59:33;262.57;;;113.60;;
14066;SDS011;7108;42.684;23.350;2023-06-26T08:02:00;259.47;;;116.53;;
14066;SDS011;7108;42.684;23.350;2023-06-26T08:04:27;258.63;;;117.00;;
14066;SDS011;7108;42.684;23.350;2023-06-26T08:06:55;247.00;;;114.30;;
14066;SDS011;7108;42.684;23.350;2023-06-26T08:09:23;293.60;;;121.37;;
14066;SDS011;7108;42.684;23.350;2023-06-26T08:11:50;269.83;;;115.10;;
14066;SDS011;7108;42.684;23.350;2023-06-26T08:14:19;273.70;;;120.07;;
14066;SDS011;7108;42.684;23.350;2023-06-26T08:16:44;258.30;;;116.80;;
14066;SDS011;7108;42.684;23.350;2023-06-26T08:19:11;279.10;;;116.20;;
14066;SDS011;7108;42.684;23.350;2023-06-26T08:21:40;263.20;;;119.03;;
14066;SDS011;7108;42.684;23.350;2023-06-26T08:24:10;281.27;;;121.20;;
14066;SDS011;7108;42.684;23.350;2023-06-26T08:26:35;265.87;;;118.37;;
14066;SDS011;7108;42.684;23.350;2023-06-26T08:29:02;249.63;;;117.83;;
14066;SDS011;7108;42.684;23.350;2023-06-26T08:31:36;253.13;;;116.43;;
14066;SDS011;7108;42.684;23.350;2023-06-26T08:34:02;255.47;;;115.70;;
14066;SDS011;7108;42.684;23.350;2023-06-26T08:36:31;251.07;;;118.60;;
14066;SDS011;7108;42.684;23.350;2023-06-26T08:38:57;251.57;;;118.60;;
14066;SDS011;7108;42.684;23.350;2023-06-26T08:41:23;265.23;;;117.37;;
14066;SDS011;7108;42.684;23.350;2023-06-26T08:43:49;279.13;;;121.53;;
14066;SDS011;7108;42.684;23.350;2023-06-26T08:46:16;293.10;;;122.43;;
14066;SDS011;7108;42.684;23.350;2023-06-26T08:48:43;272.13;;;120.47;;
14066;SDS011;7108;42.684;23.350;2023-06-26T08:51:13;277.93;;;117.77;;
14066;SDS011;7108;42.684;23.350;2023-06-26T08:56:19;282.47;;;122.67;;
14066;SDS011;7108;42.684;23.350;2023-06-26T08:58:47;270.97;;;123.20;;
14066;SDS011;7108;42.684;23.350;2023-06-26T09:01:13;291.70;;;119.07;;
14066;SDS011;7108;42.684;23.350;2023-06-26T09:03:39;283.43;;;124.23;;
14066;SDS011;7108;42.684;23.350;2023-06-26T09:06:06;259.23;;;118.37;;
14066;SDS011;7108;42.684;23.350;2023-06-26T09:08:32;260.20;;;120.30;;
14066;SDS011;7108;42.684;23.350;2023-06-26T09:10:57;255.97;;;115.47;;
14066;SDS011;7108;42.684;23.350;2023-06-26T09:13:22;268.73;;;117.83;;
14066;SDS011;7108;42.684;23.350;2023-06-26T09:15:48;291.67;;;125.57;;
14066;SDS011;7108;42.684;23.350;2023-06-26T09:18:16;301.67;;;130.93;;
14066;SDS011;7108;42.684;23.350;2023-06-26T09:20:43;273.80;;;120.60;;
14066;SDS011;7108;42.684;23.350;2023-06-26T09:23:09;268.30;;;122.03;;
14066;SDS011;7108;42.684;23.350;2023-06-26T09:25:37;284.57;;;122.73;;
14066;SDS011;7108;42.684;23.350;2023-06-26T09:28:04;255.10;;;122.63;;
14066;SDS011;7108;42.684;23.350;2023-06-26T09:30:34;266.90;;;118.03;;
14066;SDS011;7108;42.684;23.350;2023-06-26T09:33:12;264.90;;;121.00;;
14066;SDS011;7108;42.684;23.350;2023-06-26T09:35:38;275.97;;;123.27;;
14066;SDS011;7108;42.684;23.350;2023-06-26T09:38:04;261.40;;;122.07;;
14066;SDS011;7108;42.684;23.350;2023-06-26T09:40:29;286.03;;;124.57;;
14066;SDS011;7108;42.684;23.350;2023-06-26T09:43:01;255.23;;;118.93;;
14066;SDS011;7108;42.684;23.350;2023-06-26T09:45:28;269.27;;;124.80;;
14066;SDS011;7108;42.684;23.350;2023-06-26T09:47:53;268.07;;;119.67;;
14066;SDS011;7108;42.684;23.350;2023-06-26T09:50:22;290.97;;;123.10;;
14066;SDS011;7108;42.684;23.350;2023-06-26T09:52:50;268.83;;;117.97;;
14066;SDS011;7108;42.684;23.350;2023-06-26T09:55:16;286.33;;;121.33;;
14066;SDS011;7108;42.684;23.350;2023-06-26T09:57:44;271.37;;;121.77;;
14066;SDS011;7108;42.684;23.350;2023-06-26T10:00:12;265.53;;;118.43;;
14066;SDS011;7108;42.684;23.350;2023-06-26T10:02:38;258.90;;;119.07;;
14066;SDS011;7108;42.684;23.350;2023-06-26T10:05:04;264.03;;;120.80;;
14066;SDS011;7108;42.684;23.350;2023-06-26T10:07:30;255.03;;;120.40;;
14066;SDS011;7108;42.684;23.350;2023-06-26T10:09:56;271.50;;;119.80;;
14066;SDS011;7108;42.684;23.350;2023-06-26T10:12:25;289.00;;;122.03;;
14066;SDS011;7108;42.684;23.350;2023-06-26T10:14:53;299.80;;;127.37;;
14066;SDS011;7108;42.684;23.350;2023-06-26T10:17:20;289.47;;;120.43;;
14066;SDS011;7108;42.684;23.350;2023-06-26T10:19:47;273.43;;;119.90;;
14066;SDS011;7108;42.684;23.350;2023-06-26T10:22:17;292.50;;;123.23;;
14066;SDS011;7108;42.684;23.350;2023-06-26T10:24:46;265.97;;;121.53;;
14066;SDS011;7108;42.684;23.350;2023-06-26T10:27:20;256.93;;;114.93;;
14066;SDS011;7108;42.684;23.350;2023-06-26T10:29:47;278.10;;;122.30;;
14066;SDS011;7108;42.684;23.350;2023-06-26T10:32:16;305.10;;;124.27;;
14066;SDS011;7108;42.684;23.350;2023-06-26T10:34:42;271.93;;;120.47;;
14066;SDS011;7108;42.684;23.350;2023-06-26T10:37:08;259.37;;;116.80;;
14066;SDS011;7108;42.684;23.350;2023-06-26T10:39:46;258.83;;;117.30;;
14066;SDS011;7108;42.684;23.350;2023-06-26T10:42:14;275.57;;;116.23;;
14066;SDS011;7108;42.684;23.350;2023-06-26T10:44:41;250.20;;;113.00;;
14066;SDS011;7108;42.684;23.350;2023-06-26T10:47:08;255.33;;;118.53;;
14066;SDS011;7108;42.684;23.350;2023-06-26T10:49:35;251.40;;;118.37;;
14066;SDS011;7108;42.684;23.350;2023-06-26T10:52:01;261.40;;;116.27;;
14066;SDS011;7108;42.684;23.350;2023-06-26T10:54:31;269.57;;;113.60;;
14066;SDS011;7108;42.684;23.350;2023-06-26T10:56:57;263.17;;;115.53;;
14066;SDS011;7108;42.684;23.350;2023-06-26T10:59:26;275.77;;;121.27;;
14066;SDS011;7108;42.684;23.350;2023-06-26T11:01:54;273.60;;;114.37;;
14066;SDS011;7108;42.684;23.350;2023-06-26T11:07:24;271.20;;;125.50;;
14066;SDS011;7108;42.684;23.350;2023-06-26T11:10:07;270.13;;;120.63;;
14066;SDS011;7108;42.684;23.350;2023-06-26T11:12:41;251.67;;;118.17;;
14066;SDS011;7108;42.684;23.350;2023-06-26T11:15:11;256.53;;;117.97;;
14066;SDS011;7108;42.684;23.350;2023-06-26T11:17:41;253.53;;;119.03;;
14066;SDS011;7108;42.684;23.350;2023-06-26T11:20:11;267.57;;;121.77;;
14066;SDS011;7108;42.684;23.350;2023-06-26T11:22:39;265.33;;;120.70;;
14066;SDS011;7108;42.684;23.350;2023-06-26T11:25:08;254.73;;;118.80;;
14066;SDS011;7108;42.684;23.350;2023-06-26T11:27:43;283.17;;;124.17;;
14066;SDS011;7108;42.684;23.350;2023-06-26T11:30:10;279.50;;;118.77;;
14066;SDS011;7108;42.684;23.350;2023-06-26T11:32:47;256.30;;;119.23;;
14066;SDS011;7108;42.684;23.350;2023-06-26T11:35:12;271.03;;;123.17;;
14066;SDS011;7108;42.684;23.350;2023-06-26T11:37:38;260.50;;;119.80;;
14066;SDS011;7108;42.684;23.350;2023-06-26T11:40:16;272.37;;;122.47;;
14066;SDS011;7108;42.684;23.350;2023-06-26T11:42:42;258.13;;;116.60;;
14066;SDS011;7108;42.684;23.350;2023-06-26T11:45:12;267.47;;;118.97;;
14066;SDS011;7108;42.684;23.350;2023-06-26T11:47:38;260.90;;;119.77;;
14066;SDS011;7108;42.684;23.350;2023-06-26T11:50:04;263.60;;;119.00;;
14066;SDS011;7108;42.684;23.350;2023-06-26T11:52:32;275.33;;;118.13;;
14066;SDS011;7108;42.684;23.350;2023-06-26T11:54:58;271.83;;;117.83;;
14066;SDS011;7108;42.684;23.350;2023-06-26T11:57:23;279.87;;;124.17;;
14066;SDS011;7108;42.684;23.350;2023-06-26T11:59:49;258.93;;;117.93;;
14066;SDS011;7108;42.684;23.350;2023-06-26T12:02:15;271.73;;;124.33;;
14066;SDS011;7108;42.684;23.350;2023-06-26T12:04:41;256.43;;;119.57;;
14066;SDS011;7108;42.684;23.350;2023-06-26T12:07:09;260.70;;;119.83;;
14066;SDS011;7108;42.684;23.350;2023-06-26T12:09:39;269.53;;;120.93;;
14066;SDS011;7108;42.684;23.350;2023-06-26T12:12:06;278.20;;;126.03;;
14066;SDS011;7108;42.684;23.350;2023-06-26T12:14:34;269.27;;;122.00;;
14066;SDS011;7108;42.684;23.350;2023-06-26T12:17:07;272.47;;;127.93;;
14066;SDS011;7108;42.684;23.350;2023-06-26T12:19:36;275.20;;;122.73;;
14066;SDS011;7108;42.684;23.350;2023-06-26T12:22:06;268.13;;;125.63;;
14066;SDS011;7108;42.684;23.350;2023-06-26T12:24:33;286.07;;;125.30;;
14066;SDS011;7108;42.684;23.350;2023-06-26T12:27:00;269.00;;;120.53;;
14066;SDS011;7108;42.684;23.350;2023-06-26T12:29:32;271.20;;;124.07;;
14066;SDS011;7108;42.684;23.350;2023-06-26T12:31:58;260.43;;;119.43;;
14066;SDS011;7108;42.684;23.350;2023-06-26T12:34:27;292.10;;;126.00;;
14066;SDS011;7108;42.684;23.350;2023-06-26T12:36:53;266.37;;;126.73;;
14066;SDS011;7108;42.684;23.350;2023-06-26T12:39:24;276.07;;;124.20;;
14066;SDS011;7108;42.684;23.350;2023-06-26T12:41:53;265.73;;;126.23;;
14066;SDS011;7108;42.684;23.350;2023-06-26T12:44:21;270.87;;;130.00;;
14066;SDS011;7108;42.684;23.350;2023-06-26T12:46:53;254.83;;;125.97;;
14066;SDS011;7108;42.684;23.350;2023-06-26T12:49:42;273.70;;;121.20;;
14066;SDS011;7108;42.684;23.350;2023-06-26T12:52:12;255.93;;;120.30;;
14066;SDS011;7108;42.684;23.350;2023-06-26T12:54:39;256.67;;;119.27;;
14066;SDS011;7108;42.684;23.350;2023-06-26T12:57:06;266.70;;;119.53;;
14066;SDS011;7108;42.684;23.350;2023-06-26T12:59:32;251.90;;;122.57;;
14066;SDS011;7108;42.684;23.350;2023-06-26T13:01:59;262.70;;;124.30;;
14066;SDS011;7108;42.684;23.350;2023-06-26T13:04:24;262.67;;;120.87;;
14066;SDS011;7108;42.684;23.350;2023-06-26T13:06:50;261.87;;;118.17;;
14066;SDS011;7108;42.684;23.350;2023-06-26T13:09:17;272.67;;;120.93;;
14066;SDS011;7108;42.684;23.350;2023-06-26T13:11:42;259.37;;;121.87;;
14066;SDS011;7108;42.684;23.350;2023-06-26T13:14:08;271.03;;;118.70;;
14066;SDS011;7108;42.684;23.350;2023-06-26T13:16:34;274.07;;;122.07;;
14066;SDS011;7108;42.684;23.350;2023-06-26T13:18:59;271.47;;;125.00;;
14066;SDS011;7108;42.684;23.350;2023-06-26T13:21:28;275.37;;;126.07;;
14066;SDS011;7108;42.684;23.350;2023-06-26T13:23:53;257.93;;;118.93;;
14066;SDS011;7108;42.684;23.350;2023-06-26T13:26:20;266.57;;;120.83;;
14066;SDS011;7108;42.684;23.350;2023-06-26T13:28:47;257.20;;;121.30;;
14066;SDS011;7108;42.684;23.350;2023-06-26T13:31:13;288.10;;;117.90;;
14066;SDS011;7108;42.684;23.350;2023-06-26T13:33:39;269.73;;;118.27;;
14066;SDS011;7108;42.684;23.350;2023-06-26T13:36:07;290.43;;;123.60;;
14066;SDS011;7108;42.684;23.350;2023-06-26T13:38:33;275.13;;;119.97;;
14066;SDS011;7108;42.684;23.350;2023-06-26T13:40:59;266.00;;;122.33;;
14066;SDS011;7108;42.684;23.350;2023-06-26T13:43:28;261.33;;;116.70;;
14066;SDS011;7108;42.684;23.350;2023-06-26T13:45:54;260.70;;;121.50;;
14066;SDS011;7108;42.684;23.350;2023-06-26T13:48:20;273.93;;;122.47;;
14066;SDS011;7108;42.684;23.350;2023-06-26T13:50:47;259.40;;;125.07;;
14066;SDS011;7108;42.684;23.350;2023-06-26T13:53:12;287.50;;;127.87;;
14066;SDS011;7108;42.684;23.350;2023-06-26T13:55:38;288.53;;;125.67;;
14066;SDS011;7108;42.684;23.350;2023-06-26T13:58:05;273.97;;;125.87;;
14066;SDS011;7108;42.684;23.350;2023-06-26T14:00:33;270.73;;;118.93;;
14066;SDS011;7108;42.684;23.350;2023-06-26T14:03:00;267.27;;;121.77;;